createdAt,value
2023-04-16T00:00:48.595Z,80.73
2023-04-16T00:03:53.746Z,81.08
2023-04-16T00:07:01.154Z,80.40
2023-04-16T00:10:08.434Z,81.38
2023-04-16T00:13:15.556Z,81.89
2023-04-16T00:16:17.881Z,82.25
2023-04-16T00:19:22.308Z,81.92
2023-04-16T00:22:27.366Z,82.06
2023-04-16T00:25:31.798Z,82.29
2023-04-16T00:28:36.268Z,81.99
2023-04-16T00:31:40.815Z,82.10
2023-04-16T00:34:45.568Z,81.77
2023-04-16T00:37:50.082Z,81.80
2023-04-16T00:40:54.584Z,81.17
2023-04-16T00:43:59.534Z,82.09
2023-04-16T00:47:07.750Z,82.27
2023-04-16T00:50:11.619Z,82.36
2023-04-16T00:53:15.275Z,82.23
2023-04-16T00:56:18.149Z,82.41
2023-04-16T00:59:20.972Z,82.50
2023-04-16T01:02:23.708Z,82.21
2023-04-16T01:05:28.842Z,82.03
2023-04-16T01:08:34.078Z,82.53
2023-04-16T01:11:38.494Z,82.87
2023-04-16T01:14:45.523Z,83.17
2023-04-16T01:17:48.200Z,82.21
2023-04-16T01:20:51.297Z,81.97
2023-04-16T01:23:56.237Z,81.83
2023-04-16T01:26:59.606Z,82.58
2023-04-16T01:30:04.666Z,82.80
2023-04-16T01:33:23.418Z,82.19
2023-04-16T01:36:27.434Z,82.73
2023-04-16T01:39:32.943Z,82.40
2023-04-16T01:42:35.386Z,83.12
2023-04-16T01:45:40.371Z,82.37
2023-04-16T01:48:49.839Z,81.96
2023-04-16T01:51:54.388Z,82.56
2023-04-16T01:54:56.702Z,82.78
2023-04-16T01:58:01.459Z,82.93
2023-04-16T02:01:07.902Z,82.78
2023-04-16T02:04:13.185Z,82.68
2023-04-16T02:07:17.743Z,82.68
2023-04-16T02:10:24.591Z,82.88
2023-04-16T02:13:27.140Z,82.24
2023-04-16T02:16:29.721Z,82.18
2023-04-16T02:19:39.420Z,82.31
2023-04-16T02:22:45.767Z,83.18
2023-04-16T02:25:51.678Z,83.02
2023-04-16T02:28:56.265Z,82.88
2023-04-16T02:32:03.805Z,82.22
2023-04-16T02:35:08.131Z,82.77
2023-04-16T02:38:12.672Z,82.99
2023-04-16T02:41:15.282Z,82.73
2023-04-16T02:44:17.534Z,82.72
2023-04-16T02:47:23.190Z,82.59
2023-04-16T02:50:30.429Z,82.49
2023-04-16T02:53:35.183Z,82.85
2023-04-16T02:56:37.493Z,82.84
2023-04-16T02:59:39.748Z,83.59
2023-04-16T03:02:44.676Z,82.82
2023-04-16T03:05:47.469Z,83.39
2023-04-16T03:08:49.878Z,83.48
2023-04-16T03:11:52.105Z,83.21
2023-04-16T03:14:56.458Z,83.45
2023-04-16T03:17:59.001Z,83.34
2023-04-16T03:21:01.379Z,83.22
2023-04-16T03:24:06.258Z,83.67
2023-04-16T03:27:08.661Z,82.69
2023-04-16T03:30:12.505Z,82.41
2023-04-16T03:33:20.752Z,82.83
2023-04-16T03:36:24.203Z,82.41
2023-04-16T03:39:28.752Z,83.34
2023-04-16T03:42:31.007Z,83.29
2023-04-16T03:45:36.333Z,82.93
2023-04-16T03:48:43.434Z,82.70
2023-04-16T03:51:49.127Z,82.62
2023-04-16T03:54:56.430Z,83.22
2023-04-16T03:58:07.632Z,83.30
2023-04-16T04:01:14.855Z,83.26
2023-04-16T04:04:19.866Z,83.03
2023-04-16T04:07:22.226Z,83.32
2023-04-16T04:10:26.734Z,83.21
2023-04-16T04:13:29.152Z,83.29
2023-04-16T04:16:32.452Z,83.65
2023-04-16T04:19:35.456Z,83.40
2023-04-16T04:22:38.371Z,83.69
2023-04-16T04:25:41.703Z,83.37
2023-04-16T04:28:44.223Z,82.84
2023-04-16T04:31:47.048Z,82.56
2023-04-16T04:34:51.707Z,82.21
2023-04-16T04:37:53.995Z,81.89
2023-04-16T04:40:56.816Z,82.35
2023-04-16T04:44:05.329Z,82.41
2023-04-16T04:47:07.865Z,82.34
2023-04-16T04:50:14.800Z,82.29
2023-04-16T04:53:17.018Z,81.52
2023-04-16T04:56:19.247Z,81.67
2023-04-16T04:59:21.736Z,81.91
2023-04-16T05:02:24.567Z,82.06
2023-04-16T05:05:27.075Z,82.10
2023-04-16T05:08:34.082Z,82.10
2023-04-16T05:11:42.136Z,81.88
2023-04-16T05:14:44.379Z,81.36
2023-04-16T05:17:48.917Z,82.10
2023-04-16T05:20:51.277Z,81.78
2023-04-16T05:23:53.748Z,80.98
2023-04-16T05:26:57.331Z,81.37
2023-04-16T05:29:59.634Z,80.84
2023-04-16T05:33:01.894Z,81.03
2023-04-16T05:36:06.888Z,81.56
2023-04-16T05:39:12.190Z,81.59
2023-04-16T05:42:14.558Z,81.54
2023-04-16T05:45:16.885Z,81.08
2023-04-16T05:48:20.254Z,80.11
2023-04-16T05:51:26.157Z,80.76
2023-04-16T05:54:28.415Z,80.37
2023-04-16T05:57:36.639Z,80.43
2023-04-16T06:00:39.405Z,80.51
2023-04-16T06:03:41.673Z,79.98
2023-04-16T06:06:47.710Z,80.57
2023-04-16T06:09:49.944Z,80.39
2023-04-16T06:12:52.184Z,80.10
2023-04-16T06:15:56.803Z,79.39
2023-04-16T06:18:59.309Z,79.13
2023-04-16T06:22:06.856Z,78.93
2023-04-16T06:25:09.642Z,79.22
2023-04-16T06:28:15.339Z,78.82
2023-04-16T06:31:18.703Z,78.26
2023-04-16T06:34:25.758Z,77.16
2023-04-16T06:37:30.317Z,76.91
2023-04-16T06:40:37.639Z,76.71
2023-04-16T06:43:42.950Z,76.10
2023-04-16T06:46:45.350Z,76.47
2023-04-16T06:49:49.887Z,74.13
2023-04-16T06:52:54.817Z,74.10
2023-04-16T06:55:59.863Z,74.53
2023-04-16T06:59:02.093Z,73.25
2023-04-16T07:02:10.606Z,73.48
2023-04-16T07:05:13.160Z,72.18
2023-04-16T07:08:20.269Z,71.21
2023-04-16T07:11:22.645Z,69.66
2023-04-16T07:14:24.957Z,68.41
2023-04-16T07:17:31.855Z,66.15
2023-04-16T07:20:34.214Z,64.21
2023-04-16T07:23:38.682Z,63.35
2023-04-16T07:26:43.073Z,63.50
2023-04-16T07:29:45.984Z,63.79
2023-04-16T07:32:51.661Z,64.45
2023-04-16T07:35:53.958Z,65.93
2023-04-16T07:38:56.311Z,65.73
2023-04-16T07:42:00.897Z,67.36
2023-04-16T07:45:05.635Z,66.07
2023-04-16T07:48:11.301Z,65.95
2023-04-16T07:51:14.125Z,65.45
2023-04-16T07:54:16.401Z,65.49
2023-04-16T07:57:18.682Z,65.96
2023-04-16T08:00:23.477Z,65.56
2023-04-16T08:03:27.515Z,65.20
2023-04-16T08:06:35.275Z,66.47
2023-04-16T08:09:47.988Z,65.44
2023-04-16T08:12:55.043Z,62.72
2023-04-16T08:16:04.664Z,61.45
2023-04-16T08:19:06.980Z,60.55
2023-04-16T08:22:09.410Z,60.40
2023-04-16T08:25:13.017Z,59.29
2023-04-16T08:28:20.331Z,59.55
2023-04-16T08:31:25.024Z,60.32
2023-04-16T08:34:27.353Z,60.47
2023-04-16T08:37:32.343Z,60.27
2023-04-16T08:40:44.583Z,60.24
2023-04-16T08:43:51.086Z,58.10
2023-04-16T08:47:00.602Z,58.60
2023-04-16T08:50:06.603Z,58.48
2023-04-16T08:53:16.595Z,59.06
2023-04-16T08:56:23.735Z,57.77
2023-04-16T08:59:27.045Z,58.84
2023-04-16T09:02:31.498Z,57.83
2023-04-16T09:05:34.175Z,57.49
2023-04-16T09:08:38.245Z,57.33
2023-04-16T09:11:40.628Z,57.80
2023-04-16T09:14:44.192Z,58.87
2023-04-16T09:17:46.615Z,59.54
2023-04-16T09:20:56.379Z,60.59
2023-04-16T09:24:01.995Z,60.11
2023-04-16T09:27:04.952Z,60.57
2023-04-16T09:30:27.528Z,61.42
2023-04-16T09:33:35.086Z,61.50
2023-04-16T09:36:37.478Z,60.98
2023-04-16T09:39:41.935Z,60.50
2023-04-16T09:42:44.283Z,61.27
2023-04-16T09:45:56.981Z,60.96
2023-04-16T09:49:05.628Z,60.46
2023-04-16T09:52:17.541Z,60.28
2023-04-16T09:55:27.008Z,59.84
2023-04-16T09:58:32.072Z,59.05
2023-04-16T10:01:38.771Z,58.14
2023-04-16T10:04:51.932Z,57.86
2023-04-16T10:08:00.167Z,57.05
2023-04-16T10:11:02.997Z,56.70
2023-04-16T10:14:07.525Z,55.66
2023-04-16T10:17:12.514Z,54.31
2023-04-16T10:20:18.499Z,53.30
2023-04-16T10:23:26.593Z,52.66
2023-04-16T10:26:35.819Z,53.33
2023-04-16T10:29:41.374Z,53.26
2023-04-16T10:32:49.206Z,53.66
2023-04-16T10:36:08.223Z,53.26
2023-04-16T10:39:20.156Z,51.84
2023-04-16T10:42:28.065Z,52.92
2023-04-16T10:45:32.771Z,52.73
2023-04-16T10:48:46.780Z,51.92
2023-04-16T10:52:07.550Z,51.61
2023-04-16T10:55:17.389Z,52.63
2023-04-16T10:58:30.296Z,53.07
2023-04-16T11:01:36.941Z,45.27
2023-04-16T11:04:46.730Z,44.15
2023-04-16T11:07:49.978Z,43.54
2023-04-16T11:10:53.097Z,43.44
2023-04-16T11:13:56.976Z,43.45
2023-04-16T11:17:04.946Z,44.79
2023-04-16T11:20:23.755Z,43.67
2023-04-16T11:23:29.363Z,45.05
2023-04-16T11:26:34.211Z,45.58
2023-04-16T11:29:39.100Z,41.97
2023-04-16T11:32:41.499Z,42.50
2023-04-16T11:35:45.887Z,39.72
2023-04-16T11:38:48.257Z,40.59
2023-04-16T11:41:52.508Z,42.73
2023-04-16T11:45:00.805Z,42.40
2023-04-16T11:48:03.295Z,42.05
2023-04-16T11:51:05.531Z,42.16
2023-04-16T11:54:18.351Z,43.35
2023-04-16T11:57:31.074Z,43.71
2023-04-16T12:00:35.590Z,43.73
2023-04-16T12:03:44.257Z,42.92
2023-04-16T12:07:11.309Z,42.77
2023-04-16T12:10:16.129Z,43.18
2023-04-16T12:13:19.704Z,43.62
2023-04-16T12:16:22.031Z,43.42
2023-04-16T12:19:26.552Z,41.72
2023-04-16T12:22:31.982Z,42.58
2023-04-16T12:25:50.080Z,43.40
2023-04-16T12:28:52.614Z,43.76
2023-04-16T12:31:54.983Z,43.48
2023-04-16T12:34:59.842Z,43.22
2023-04-16T12:38:07.038Z,44.16
2023-04-16T12:41:09.393Z,44.35
2023-04-16T12:44:17.910Z,44.67
2023-04-16T12:47:22.725Z,44.50
2023-04-16T12:50:28.874Z,44.02
2023-04-16T12:53:34.082Z,44.17
2023-04-16T12:56:39.055Z,43.68
2023-04-16T12:59:41.284Z,43.40
2023-04-16T13:02:43.656Z,42.65
2023-04-16T13:05:46.058Z,42.83
2023-04-16T13:08:50.940Z,42.66
2023-04-16T13:11:53.235Z,42.33
2023-04-16T13:14:55.971Z,38.64
2023-04-16T13:17:58.257Z,42.78
2023-04-16T13:21:03.603Z,43.58
2023-04-16T13:24:09.056Z,39.06
2023-04-16T13:27:11.391Z,38.99
2023-04-16T13:30:13.988Z,38.75
2023-04-16T13:33:16.433Z,38.22
2023-04-16T13:36:20.981Z,38.43
2023-04-16T13:39:23.229Z,38.98
2023-04-16T13:42:28.444Z,38.53
2023-04-16T13:45:30.901Z,39.02
2023-04-16T13:48:34.018Z,38.84
2023-04-16T13:51:37.706Z,38.47
2023-04-16T13:54:43.052Z,39.24
2023-04-16T13:57:56.381Z,39.12
2023-04-16T14:00:58.806Z,38.14
2023-04-16T14:04:06.414Z,38.63
2023-04-16T14:07:09.173Z,36.75
2023-04-16T14:10:11.523Z,43.02
2023-04-16T14:13:21.095Z,44.45
2023-04-16T14:16:25.894Z,43.37
2023-04-16T14:19:28.208Z,43.58
2023-04-16T14:22:30.658Z,44.47
2023-04-16T14:25:38.244Z,44.76
2023-04-16T14:28:45.810Z,44.86
2023-04-16T14:31:50.460Z,44.99
2023-04-16T14:34:52.906Z,44.99
2023-04-16T14:37:57.185Z,45.07
2023-04-16T14:41:04.366Z,44.16
2023-04-16T14:44:06.910Z,44.31
2023-04-16T14:47:11.582Z,44.43
2023-04-16T14:50:14.310Z,44.15
2023-04-16T14:53:16.864Z,43.52
2023-04-16T14:56:21.554Z,43.22
2023-04-16T14:59:23.888Z,43.01
2023-04-16T15:02:26.380Z,42.30
2023-04-16T15:05:32.613Z,41.40
2023-04-16T15:08:37.306Z,41.33
2023-04-16T15:11:41.641Z,40.95
2023-04-16T15:14:43.864Z,40.73
2023-04-16T15:17:46.217Z,40.76
2023-04-16T15:20:48.537Z,40.92
2023-04-16T15:23:55.486Z,40.51
2023-04-16T15:26:58.192Z,40.65
2023-04-16T15:30:03.015Z,39.10
2023-04-16T15:33:05.445Z,39.55
2023-04-16T15:36:07.842Z,40.06
2023-04-16T15:39:10.882Z,40.31
2023-04-16T15:42:13.462Z,40.37
2023-04-16T15:45:15.912Z,40.07
2023-04-16T15:48:21.369Z,40.20
2023-04-16T15:51:26.788Z,40.03
2023-04-16T15:54:30.769Z,40.85
2023-04-16T15:57:35.731Z,41.01
2023-04-16T16:00:37.994Z,41.06
2023-04-16T16:03:42.812Z,41.32
2023-04-16T16:06:45.232Z,41.18
2023-04-16T16:09:48.093Z,41.34
2023-04-16T16:12:50.429Z,41.39
2023-04-16T16:15:52.779Z,41.71
2023-04-16T16:18:57.229Z,41.85
2023-04-16T16:22:01.658Z,42.38
2023-04-16T16:25:07.146Z,42.32
2023-04-16T16:28:09.369Z,42.34
2023-04-16T16:31:12.585Z,42.95
2023-04-16T16:34:20.449Z,43.13
2023-04-16T16:37:26.666Z,42.95
2023-04-16T16:40:29.069Z,43.26
2023-04-16T16:43:31.623Z,43.56
2023-04-16T16:46:36.903Z,43.25
2023-04-16T16:49:41.261Z,44.03
2023-04-16T16:52:44.714Z,44.16
2023-04-16T16:55:51.412Z,43.74
2023-04-16T16:59:01.847Z,44.15
2023-04-16T17:02:07.131Z,44.12
2023-04-16T17:05:09.823Z,44.11
2023-04-16T17:08:17.372Z,44.47
2023-04-16T17:11:19.768Z,44.65
2023-04-16T17:14:22.356Z,44.65
2023-04-16T17:17:25.155Z,45.11
2023-04-16T17:20:34.422Z,44.90
2023-04-16T17:23:41.239Z,45.51
2023-04-16T17:26:43.865Z,45.71
2023-04-16T17:29:46.144Z,45.80
2023-04-16T17:32:50.806Z,46.01
2023-04-16T17:35:55.419Z,46.48
2023-04-16T17:38:58.409Z,46.42
2023-04-16T17:42:03.024Z,46.27
2023-04-16T17:45:06.043Z,47.00
2023-04-16T17:48:08.375Z,47.03
2023-04-16T17:51:13.433Z,47.38
2023-04-16T17:54:15.864Z,47.18
2023-04-16T17:57:18.157Z,47.29
2023-04-16T18:00:20.432Z,47.54
2023-04-16T18:03:25.057Z,48.13
2023-04-16T18:06:27.715Z,48.48
2023-04-16T18:09:30.625Z,48.99
2023-04-16T18:12:35.125Z,49.77
2023-04-16T18:15:42.218Z,49.93
2023-04-16T18:18:45.074Z,50.59
2023-04-16T18:21:53.247Z,51.46
2023-04-16T18:24:58.166Z,51.40
2023-04-16T18:28:06.277Z,51.97
2023-04-16T18:31:11.039Z,52.04
2023-04-16T18:34:15.956Z,52.62
2023-04-16T18:37:20.993Z,52.83
2023-04-16T18:40:23.406Z,52.76
2023-04-16T18:43:28.127Z,53.31
2023-04-16T18:46:33.010Z,53.10
2023-04-16T18:49:35.373Z,53.37
2023-04-16T18:52:39.904Z,53.46
2023-04-16T18:55:44.693Z,53.11
2023-04-16T18:58:51.467Z,53.55
2023-04-16T19:01:53.828Z,53.33
2023-04-16T19:04:56.465Z,53.65
2023-04-16T19:08:00.296Z,52.88
2023-04-16T19:11:04.902Z,52.77
2023-04-16T19:14:11.110Z,52.73
2023-04-16T19:17:13.399Z,52.67
2023-04-16T19:20:18.090Z,52.41
2023-04-16T19:23:21.221Z,52.82
2023-04-16T19:26:23.508Z,53.29
2023-04-16T19:29:26.058Z,52.78
2023-04-16T19:32:31.072Z,53.02
2023-04-16T19:35:34.705Z,53.04
2023-04-16T19:38:39.100Z,53.34
2023-04-16T19:41:41.378Z,54.10
2023-04-16T19:44:43.690Z,53.55
2023-04-16T19:47:51.268Z,53.62
2023-04-16T19:50:53.949Z,53.71
2023-04-16T19:53:56.527Z,53.02
2023-04-16T19:56:58.869Z,53.97
2023-04-16T20:00:09.065Z,53.71
2023-04-16T20:03:11.365Z,53.42
2023-04-16T20:06:17.644Z,53.12
2023-04-16T20:09:22.594Z,53.48
2023-04-16T20:12:27.046Z,52.92
2023-04-16T20:15:29.333Z,53.13
2023-04-16T20:18:41.225Z,52.86
2023-04-16T20:21:45.437Z,52.78
2023-04-16T20:24:49.914Z,52.87
2023-04-16T20:27:52.184Z,52.67
2023-04-16T20:30:54.452Z,52.54
2023-04-16T20:33:59.640Z,52.46
2023-04-16T20:37:03.125Z,52.45
2023-04-16T20:40:09.402Z,52.49
2023-04-16T20:43:14.316Z,52.45
2023-04-16T20:46:18.213Z,52.76
2023-04-16T20:49:20.603Z,52.76
2023-04-16T20:52:26.464Z,52.42
2023-04-16T20:55:31.246Z,52.24
2023-04-16T20:58:38.347Z,52.55
2023-04-16T21:01:45.714Z,52.78
2023-04-16T21:04:48.226Z,52.18
2023-04-16T21:07:55.401Z,52.34
2023-04-16T21:11:00.600Z,52.69
2023-04-16T21:14:03.537Z,52.33
2023-04-16T21:17:08.269Z,52.28
2023-04-16T21:20:13.527Z,51.99
2023-04-16T21:23:15.917Z,52.23
2023-04-16T21:26:20.950Z,52.23
2023-04-16T21:29:23.310Z,52.02
2023-04-16T21:32:25.775Z,52.68
2023-04-16T21:35:28.104Z,52.39
2023-04-16T21:38:32.745Z,52.88
2023-04-16T21:41:35.027Z,52.85
2023-04-16T21:44:37.430Z,53.21
2023-04-16T21:47:44.509Z,53.51
2023-04-16T21:51:06.592Z,53.55
2023-04-16T21:54:09.124Z,53.79
2023-04-16T21:57:13.376Z,53.72
2023-04-16T22:00:15.937Z,54.31
2023-04-16T22:03:26.199Z,54.16
2023-04-16T22:06:28.977Z,54.48
2023-04-16T22:09:36.076Z,54.13
2023-04-16T22:12:42.681Z,54.37
2023-04-16T22:15:44.972Z,53.68
2023-04-16T22:18:47.482Z,53.89
2023-04-16T22:21:49.809Z,53.69
2023-04-16T22:24:52.599Z,53.52
2023-04-16T22:27:58.485Z,53.97
2023-04-16T22:31:00.775Z,53.32
2023-04-16T22:34:05.615Z,53.23
2023-04-16T22:37:08.176Z,52.78
2023-04-16T22:40:11.506Z,53.29
2023-04-16T22:43:14.082Z,52.54
2023-04-16T22:46:16.395Z,52.51
2023-04-16T22:49:18.729Z,52.54
2023-04-16T22:52:21.063Z,52.36
2023-04-16T22:55:23.513Z,52.58
2023-04-16T22:58:25.963Z,52.53
2023-04-16T23:01:30.551Z,53.06
2023-04-16T23:04:37.606Z,52.00
2023-04-16T23:07:42.164Z,52.29
2023-04-16T23:10:49.625Z,52.82
2023-04-16T23:13:51.864Z,52.38
2023-04-16T23:16:56.787Z,52.64
2023-04-16T23:19:59.059Z,53.22
2023-04-16T23:23:01.379Z,53.07
2023-04-16T23:26:05.790Z,53.37
2023-04-16T23:29:08.170Z,52.89
2023-04-16T23:32:10.456Z,52.53
2023-04-16T23:35:22.817Z,53.19
2023-04-16T23:38:29.942Z,53.13
2023-04-16T23:41:32.228Z,53.03
2023-04-16T23:44:36.901Z,52.81
2023-04-16T23:47:44.486Z,53.35
2023-04-16T23:50:46.812Z,53.80
2023-04-16T23:53:49.077Z,53.24
2023-04-16T23:56:53.818Z,53.37
2023-04-16T23:59:58.612Z,53.51
